sensor_id;sensor_type;location;lat;lon;timestamp;pressure;altitude;pressure_sealevel;temperature;humidity
49759;BME280;35654;46.080;11.118;2022-11-15T14:06:47;99291.88;;;11.08;73.60
49759;BME280;35654;46.080;11.118;2022-11-15T14:11:56;99290.97;;;11.13;75.01
49759;BME280;35654;46.080;11.118;2022-11-15T14:14:23;99288.09;;;11.04;75.96
49759;BME280;35654;46.080;11.118;2022-11-15T14:16:57;99291.06;;;11.07;76.54
49759;BME280;35654;46.080;11.118;2022-11-15T14:24:34;99275.72;;;11.06;75.40
49759;BME280;35654;46.080;11.118;2022-11-15T14:27:24;99275.50;;;11.03;75.77
49759;BME280;35654;46.080;11.118;2022-11-15T14:29:51;99269.09;;;10.94;76.25
49759;BME280;35654;46.080;11.118;2022-11-15T14:34:53;99260.03;;;10.80;77.02
49759;BME280;35654;46.080;11.118;2022-11-15T14:37:25;99258.34;;;10.65;77.64
49759;BME280;35654;46.080;11.118;2022-11-15T14:39:51;99253.03;;;10.55;77.94
49759;BME280;35654;46.080;11.118;2022-11-15T14:42:17;99254.72;;;10.51;77.68
49759;BME280;35654;46.080;11.118;2022-11-15T14:44:43;99246.75;;;10.55;78.01
49759;BME280;35654;46.080;11.118;2022-11-15T14:47:08;99245.00;;;10.59;77.40
49759;BME280;35654;46.080;11.118;2022-11-15T14:49:34;99245.56;;;10.61;77.45
49759;BME280;35654;46.080;11.118;2022-11-15T14:51:59;99245.00;;;10.59;78.38
49759;BME280;35654;46.080;11.118;2022-11-15T14:54:24;99248.81;;;10.63;78.36
49759;BME280;35654;46.080;11.118;2022-11-15T14:56:50;99247.97;;;10.62;78.60
49759;BME280;35654;46.080;11.118;2022-11-15T14:59:15;99244.75;;;10.60;79.02
49759;BME280;35654;46.080;11.118;2022-11-15T15:01:41;99239.25;;;10.60;78.35
49759;BME280;35654;46.080;11.118;2022-11-15T15:04:06;99236.59;;;10.55;77.69
49759;BME280;35654;46.080;11.118;2022-11-15T15:06:31;99227.66;;;10.49;78.50
49759;BME280;35654;46.080;11.118;2022-11-15T15:08:57;99230.59;;;10.53;78.71
49759;BME280;35654;46.080;11.118;2022-11-15T15:11:24;99227.56;;;10.55;79.24
49759;BME280;35654;46.080;11.118;2022-11-15T15:13:51;99222.84;;;10.60;79.59
49759;BME280;35654;46.080;11.118;2022-11-15T15:16:17;99215.72;;;10.59;78.46
49759;BME280;35654;46.080;11.118;2022-11-15T15:18:43;99220.38;;;10.59;78.91
49759;BME280;35654;46.080;11.118;2022-11-15T15:23:48;99213.66;;;10.51;79.42
49759;BME280;35654;46.080;11.118;2022-11-15T15:26:13;99221.06;;;10.50;80.08
49759;BME280;35654;46.080;11.118;2022-11-15T15:28:39;99219.72;;;10.48;81.52
49759;BME280;35654;46.080;11.118;2022-11-15T15:31:05;99213.44;;;10.47;82.05
49759;BME280;35654;46.080;11.118;2022-11-15T15:33:31;99218.50;;;10.40;82.61
49759;BME280;35654;46.080;11.118;2022-11-15T15:35:56;99212.50;;;10.38;82.80
49759;BME280;35654;46.080;11.118;2022-11-15T15:38:22;99221.31;;;10.35;83.12
49759;BME280;35654;46.080;11.118;2022-11-15T15:40:47;99216.13;;;10.34;83.40
49759;BME280;35654;46.080;11.118;2022-11-15T15:43:13;99211.63;;;10.24;82.88
49759;BME280;35654;46.080;11.118;2022-11-15T15:45:41;99213.31;;;10.20;83.68
49759;BME280;35654;46.080;11.118;2022-11-15T15:48:15;99210.28;;;10.22;84.53
49759;BME280;35654;46.080;11.118;2022-11-15T15:50:41;99212.81;;;10.18;85.02
49759;BME280;35654;46.080;11.118;2022-11-15T15:53:11;99215.63;;;10.08;85.72
49759;BME280;35654;46.080;11.118;2022-11-15T15:55:37;99209.66;;;10.06;85.39
49759;BME280;35654;46.080;11.118;2022-11-15T15:58:03;99208.25;;;10.09;85.43
49759;BME280;35654;46.080;11.118;2022-11-15T16:00:30;99203.69;;;10.04;85.79
49759;BME280;35654;46.080;11.118;2022-11-15T16:02:57;99212.97;;;10.03;85.31
49759;BME280;35654;46.080;11.118;2022-11-15T16:05:23;99204.53;;;10.00;85.18
49759;BME280;35654;46.080;11.118;2022-11-15T16:07:49;99208.63;;;10.02;85.73
49759;BME280;35654;46.080;11.118;2022-11-15T16:10:28;99204.78;;;10.03;86.01
49759;BME280;35654;46.080;11.118;2022-11-15T16:12:56;99203.69;;;10.04;85.78
49759;BME280;35654;46.080;11.118;2022-11-15T16:15:23;99207.50;;;10.03;85.45
49759;BME280;35654;46.080;11.118;2022-11-15T16:17:57;99195.75;;;10.03;85.33
49759;BME280;35654;46.080;11.118;2022-11-15T16:20:33;99197.91;;;10.06;85.18
49759;BME280;35654;46.080;11.118;2022-11-15T16:23:00;99196.22;;;10.10;85.13
49759;BME280;35654;46.080;11.118;2022-11-15T16:25:25;99195.06;;;10.16;85.61
49759;BME280;35654;46.080;11.118;2022-11-15T16:27:51;99195.06;;;10.16;85.97
49759;BME280;35654;46.080;11.118;2022-11-15T16:30:19;99191.25;;;10.12;85.55
49759;BME280;35654;46.080;11.118;2022-11-15T16:32:45;99198.13;;;10.09;85.70
49759;BME280;35654;46.080;11.118;2022-11-15T16:35:12;99191.31;;;10.07;85.92
49759;BME280;35654;46.080;11.118;2022-11-15T16:37:38;99194.34;;;10.05;86.38
49759;BME280;35654;46.080;11.118;2022-11-15T16:40:25;99189.19;;;10.04;87.37
49759;BME280;35654;46.080;11.118;2022-11-15T16:42:51;99188.09;;;10.05;88.01
49759;BME280;35654;46.080;11.118;2022-11-15T16:45:16;99188.09;;;10.05;88.08
49759;BME280;35654;46.080;11.118;2022-11-15T16:47:42;99195.38;;;10.09;88.43
49759;BME280;35654;46.080;11.118;2022-11-15T16:50:29;99191.09;;;10.03;88.80
49759;BME280;35654;46.080;11.118;2022-11-15T16:52:56;99187.25;;;10.04;88.39
49759;BME280;35654;46.080;11.118;2022-11-15T16:55:27;99185.69;;;9.98;89.12
49759;BME280;35654;46.080;11.118;2022-11-15T16:57:53;99185.69;;;9.98;90.54
49759;BME280;35654;46.080;11.118;2022-11-15T17:00:19;99182.16;;;9.98;91.04
49759;BME280;35654;46.080;11.118;2022-11-15T17:02:47;99182.47;;;9.96;91.87
49759;BME280;35654;46.080;11.118;2022-11-15T17:05:13;99170.69;;;9.95;92.72
49759;BME280;35654;46.080;11.118;2022-11-15T17:07:39;99180.06;;;9.89;93.77
49759;BME280;35654;46.080;11.118;2022-11-15T17:10:05;99172.47;;;9.86;93.71
49759;BME280;35654;46.080;11.118;2022-11-15T17:12:33;99172.78;;;9.85;95.45
49759;BME280;35654;46.080;11.118;2022-11-15T17:14:58;99164.56;;;9.85;96.06
49759;BME280;35654;46.080;11.118;2022-11-15T17:17:24;99159.69;;;9.82;96.61
49759;BME280;35654;46.080;11.118;2022-11-15T17:19:51;99162.63;;;9.85;96.64
49759;BME280;35654;46.080;11.118;2022-11-15T17:22:17;99162.94;;;9.84;96.45
49759;BME280;35654;46.080;11.118;2022-11-15T17:24:42;99158.50;;;9.88;96.47
49759;BME280;35654;46.080;11.118;2022-11-15T17:27:07;99169.97;;;9.90;97.12
49759;BME280;35654;46.080;11.118;2022-11-15T17:29:33;99163.34;;;9.91;97.80
49759;BME280;35654;46.080;11.118;2022-11-15T17:31:58;99156.50;;;9.93;98.43
49759;BME280;35654;46.080;11.118;2022-11-15T17:34:23;99157.91;;;9.91;97.80
49759;BME280;35654;46.080;11.118;2022-11-15T17:36:49;99156.66;;;9.83;97.79
49759;BME280;35654;46.080;11.118;2022-11-15T17:39:14;99161.88;;;9.80;97.85
49759;BME280;35654;46.080;11.118;2022-11-15T17:41:40;99167.66;;;9.78;97.42
49759;BME280;35654;46.080;11.118;2022-11-15T17:44:05;99161.25;;;9.88;98.07
49759;BME280;35654;46.080;11.118;2022-11-15T17:46:31;99172.03;;;9.79;96.91
49759;BME280;35654;46.080;11.118;2022-11-15T17:48:57;99159.97;;;9.80;96.79
49759;BME280;35654;46.080;11.118;2022-11-15T17:51:23;99165.34;;;9.85;95.93
49759;BME280;35654;46.080;11.118;2022-11-15T17:53:48;99170.31;;;9.83;96.01
49759;BME280;35654;46.080;11.118;2022-11-15T17:56:17;99158.88;;;9.81;96.25
49759;BME280;35654;46.080;11.118;2022-11-15T17:58:54;99160.28;;;9.79;96.89
49759;BME280;35654;46.080;11.118;2022-11-15T18:01:30;99153.09;;;9.83;96.83
49759;BME280;35654;46.080;11.118;2022-11-15T18:03:57;99152.00;;;9.84;96.12
49759;BME280;35654;46.080;11.118;2022-11-15T18:06:25;99145.44;;;9.85;96.58
49759;BME280;35654;46.080;11.118;2022-11-15T18:08:53;99142.38;;;9.86;97.02
49759;BME280;35654;46.080;11.118;2022-11-15T18:11:33;99145.28;;;9.76;97.00
49759;BME280;35654;46.080;11.118;2022-11-15T18:14:01;99147.53;;;9.69;97.26
49759;BME280;35654;46.080;11.118;2022-11-15T18:16:30;99147.63;;;9.64;97.68
49759;BME280;35654;46.080;11.118;2022-11-15T18:18:56;99149.53;;;9.64;98.14
49759;BME280;35654;46.080;11.118;2022-11-15T18:21:26;99149.84;;;9.62;98.66
49759;BME280;35654;46.080;11.118;2022-11-15T18:23:53;99144.38;;;9.62;98.47
49759;BME280;35654;46.080;11.118;2022-11-15T18:26:19;99150.88;;;9.66;99.00
49759;BME280;35654;46.080;11.118;2022-11-15T18:28:47;99145.41;;;9.66;99.60
49759;BME280;35654;46.080;11.118;2022-11-15T18:33:43;99152.06;;;9.60;100.00
49759;BME280;35654;46.080;11.118;2022-11-15T18:36:11;99155.81;;;9.64;100.00
49759;BME280;35654;46.080;11.118;2022-11-15T18:38:38;99145.69;;;9.65;100.00
49759;BME280;35654;46.080;11.118;2022-11-15T18:41:07;99150.88;;;9.66;100.00
49759;BME280;35654;46.080;11.118;2022-11-15T18:43:33;99146.44;;;9.70;100.00
49759;BME280;35654;46.080;11.118;2022-11-15T18:46:07;99137.94;;;9.72;99.12
49759;BME280;35654;46.080;11.118;2022-11-15T18:48:34;99145.34;;;9.71;98.25
49759;BME280;35654;46.080;11.118;2022-11-15T18:51:09;99148.00;;;9.76;97.02
49759;BME280;35654;46.080;11.118;2022-11-15T18:53:35;99145.03;;;9.73;97.18
49759;BME280;35654;46.080;11.118;2022-11-15T18:56:06;99144.81;;;9.69;97.87
49759;BME280;35654;46.080;11.118;2022-11-15T18:58:34;99139.94;;;9.66;100.00
49759;BME280;35654;46.080;11.118;2022-11-15T19:01:11;99144.00;;;9.69;100.00
49759;BME280;35654;46.080;11.118;2022-11-15T19:03:39;99142.38;;;9.68;100.00
49759;BME280;35654;46.080;11.118;2022-11-15T19:06:07;99142.38;;;9.68;100.00
49759;BME280;35654;46.080;11.118;2022-11-15T19:08:34;99140.47;;;9.68;100.00
49759;BME280;35654;46.080;11.118;2022-11-15T19:11:10;99140.16;;;9.70;100.00
49759;BME280;35654;46.080;11.118;2022-11-15T19:13:36;99134.78;;;9.65;100.00
49759;BME280;35654;46.080;11.118;2022-11-15T19:16:02;99137.50;;;9.65;100.00
49759;BME280;35654;46.080;11.118;2022-11-15T19:18:29;99136.44;;;9.61;100.00
49759;BME280;35654;46.080;11.118;2022-11-15T19:20:55;99139.25;;;9.56;100.00
49759;BME280;35654;46.080;11.118;2022-11-15T19:23:22;99134.44;;;9.48;100.00
49759;BME280;35654;46.080;11.118;2022-11-15T19:25:57;99128.66;;;9.49;100.00
49759;BME280;35654;46.080;11.118;2022-11-15T19:28:24;99123.97;;;9.55;100.00
49759;BME280;35654;46.080;11.118;2022-11-15T19:30:50;99122.59;;;9.57;100.00
49759;BME280;35654;46.080;11.118;2022-11-15T19:33:16;99114.59;;;9.61;100.00
49759;BME280;35654;46.080;11.118;2022-11-15T19:35:41;99120.00;;;9.66;100.00
49759;BME280;35654;46.080;11.118;2022-11-15T19:38:07;99111.25;;;9.64;100.00
49759;BME280;35654;46.080;11.118;2022-11-15T19:40:32;99111.25;;;9.64;100.00
49759;BME280;35654;46.080;11.118;2022-11-15T19:42:58;99115.41;;;9.61;100.00
49759;BME280;35654;46.080;11.118;2022-11-15T19:45:23;99115.13;;;9.63;100.00
49759;BME280;35654;46.080;11.118;2022-11-15T19:47:49;99117.31;;;9.61;100.00
49759;BME280;35654;46.080;11.118;2022-11-15T19:50:14;99110.44;;;9.63;100.00
49759;BME280;35654;46.080;11.118;2022-11-15T19:52:39;99111.06;;;9.60;100.00
49759;BME280;35654;46.080;11.118;2022-11-15T19:55:05;99109.66;;;9.63;100.00
49759;BME280;35654;46.080;11.118;2022-11-15T19:57:31;99109.66;;;9.63;100.00
49759;BME280;35654;46.080;11.118;2022-11-15T19:59:56;99112.66;;;9.61;100.00
49759;BME280;35654;46.080;11.118;2022-11-15T20:02:21;99103.13;;;9.59;100.00
49759;BME280;35654;46.080;11.118;2022-11-15T20:04:47;99110.09;;;9.51;100.00
49759;BME280;35654;46.080;11.118;2022-11-15T20:07:12;99112.81;;;9.51;100.00
49759;BME280;35654;46.080;11.118;2022-11-15T20:09:37;99102.91;;;9.55;100.00
49759;BME280;35654;46.080;11.118;2022-11-15T20:12:03;99108.38;;;9.55;100.00
49759;BME280;35654;46.080;11.118;2022-11-15T20:14:28;99106.81;;;9.49;100.00
49759;BME280;35654;46.080;11.118;2022-11-15T20:16:55;99104.16;;;9.44;100.00
49759;BME280;35654;46.080;11.118;2022-11-15T20:19:20;99103.06;;;9.45;100.00
49759;BME280;35654;46.080;11.118;2022-11-15T20:21:47;99093.97;;;9.50;100.00
49759;BME280;35654;46.080;11.118;2022-11-15T20:24:12;99102.97;;;9.50;100.00
49759;BME280;35654;46.080;11.118;2022-11-15T20:26:38;99102.97;;;9.50;100.00
49759;BME280;35654;46.080;11.118;2022-11-15T20:29:04;99096.41;;;9.51;100.00
49759;BME280;35654;46.080;11.118;2022-11-15T20:31:30;99093.38;;;9.53;100.00
49759;BME280;35654;46.080;11.118;2022-11-15T20:33:56;99090.66;;;9.53;100.00
49759;BME280;35654;46.080;11.118;2022-11-15T20:36:22;99096.94;;;9.53;100.00
49759;BME280;35654;46.080;11.118;2022-11-15T20:38:48;99092.88;;;9.51;100.00
49759;BME280;35654;46.080;11.118;2022-11-15T20:41:15;99090.22;;;9.46;100.00
49759;BME280;35654;46.080;11.118;2022-11-15T20:43:41;99092.63;;;9.47;100.00
49759;BME280;35654;46.080;11.118;2022-11-15T20:46:08;99086.34;;;9.47;100.00
49759;BME280;35654;46.080;11.118;2022-11-15T20:48:35;99076.81;;;9.44;100.00
49759;BME280;35654;46.080;11.118;2022-11-15T20:51:15;99079.03;;;9.42;100.00
49759;BME280;35654;46.080;11.118;2022-11-15T20:53:42;99072.25;;;9.40;100.00
49759;BME280;35654;46.080;11.118;2022-11-15T20:56:19;99073.34;;;9.38;100.00
49759;BME280;35654;46.080;11.118;2022-11-15T20:58:45;99066.78;;;9.40;100.00
49759;BME280;35654;46.080;11.118;2022-11-15T21:01:13;99073.34;;;9.38;100.00
49759;BME280;35654;46.080;11.118;2022-11-15T21:03:39;99060.22;;;9.41;100.00
49759;BME280;35654;46.080;11.118;2022-11-15T21:06:08;99056.38;;;9.42;100.00
49759;BME280;35654;46.080;11.118;2022-11-15T21:08:34;99052.03;;;9.41;100.00
49759;BME280;35654;46.080;11.118;2022-11-15T21:11:18;99042.19;;;9.40;100.00
49759;BME280;35654;46.080;11.118;2022-11-15T21:14:03;99040.34;;;9.35;100.00
49759;BME280;35654;46.080;11.118;2022-11-15T21:16:33;99037.91;;;9.33;100.00
49759;BME280;35654;46.080;11.118;2022-11-15T21:18:58;99036.81;;;9.34;100.00
49759;BME280;35654;46.080;11.118;2022-11-15T21:21:24;99035.47;;;9.32;100.00
49759;BME280;35654;46.080;11.118;2022-11-15T21:23:49;99040.72;;;9.28;100.00
49759;BME280;35654;46.080;11.118;2022-11-15T21:26:15;99035.47;;;9.32;100.00
49759;BME280;35654;46.080;11.118;2022-11-15T21:28:40;99034.34;;;9.33;100.00
49759;BME280;35654;46.080;11.118;2022-11-15T21:31:07;99034.66;;;9.31;100.00
49759;BME280;35654;46.080;11.118;2022-11-15T21:33:34;99027.47;;;9.35;100.00
49759;BME280;35654;46.080;11.118;2022-11-15T21:36:01;99020.41;;;9.34;100.00
49759;BME280;35654;46.080;11.118;2022-11-15T21:38:28;99011.63;;;9.38;100.00
49759;BME280;35654;46.080;11.118;2022-11-15T21:40:54;99022.31;;;9.34;100.00
49759;BME280;35654;46.080;11.118;2022-11-15T21:43:21;99017.69;;;9.34;100.00
49759;BME280;35654;46.080;11.118;2022-11-15T21:48:21;99011.09;;;9.35;100.00
49759;BME280;35654;46.080;11.118;2022-11-15T21:51:01;99013.81;;;9.35;100.00
49759;BME280;35654;46.080;11.118;2022-11-15T21:53:27;98999.88;;;9.37;100.00
49759;BME280;35654;46.080;11.118;2022-11-15T21:55:54;98993.28;;;9.38;100.00
49759;BME280;35654;46.080;11.118;2022-11-15T21:58:21;99001.06;;;9.31;100.00
49759;BME280;35654;46.080;11.118;2022-11-15T22:00:48;98990.94;;;9.31;100.00
49759;BME280;35654;46.080;11.118;2022-11-15T22:03:33;98989.81;;;9.32;100.00
49759;BME280;35654;46.080;11.118;2022-11-15T22:06:00;98992.78;;;9.36;100.00
49759;BME280;35654;46.080;11.118;2022-11-15T22:08:27;98986.31;;;9.32;100.00
49759;BME280;35654;46.080;11.118;2022-11-15T22:10:54;98993.44;;;9.28;100.00
49759;BME280;35654;46.080;11.118;2022-11-15T22:13:22;98988.22;;;9.31;100.00
49759;BME280;35654;46.080;11.118;2022-11-15T22:15:49;98988.72;;;9.33;100.00
49759;BME280;35654;46.080;11.118;2022-11-15T22:18:17;98976.69;;;9.34;100.00
49759;BME280;35654;46.080;11.118;2022-11-15T22:21:01;98968.59;;;9.29;100.00
49759;BME280;35654;46.080;11.118;2022-11-15T22:23:29;98962.81;;;9.31;100.00
49759;BME280;35654;46.080;11.118;2022-11-15T22:25:56;98959.75;;;9.32;100.00
49759;BME280;35654;46.080;11.118;2022-11-15T22:28:23;98955.66;;;9.35;100.00
49759;BME280;35654;46.080;11.118;2022-11-15T22:30:51;98957.25;;;9.36;100.00
49759;BME280;35654;46.080;11.118;2022-11-15T22:33:19;98959.72;;;9.38;100.00
49759;BME280;35654;46.080;11.118;2022-11-15T22:35:47;98956.16;;;9.37;100.00
49759;BME280;35654;46.080;11.118;2022-11-15T22:38:14;98954.31;;;9.32;100.00
49759;BME280;35654;46.080;11.118;2022-11-15T22:40:42;98953.19;;;9.33;100.00
49759;BME280;35654;46.080;11.118;2022-11-15T22:43:11;98945.81;;;9.34;100.00
49759;BME280;35654;46.080;11.118;2022-11-15T22:45:54;98950.19;;;9.35;100.00
49759;BME280;35654;46.080;11.118;2022-11-15T22:48:30;98943.59;;;9.36;100.00
49759;BME280;35654;46.080;11.118;2022-11-15T22:50:57;98951.50;;;9.38;100.00
49759;BME280;35654;46.080;11.118;2022-11-15T22:53:23;98935.91;;;9.38;100.00
49759;BME280;35654;46.080;11.118;2022-11-15T22:55:54;98935.41;;;9.36;100.00
49759;BME280;35654;46.080;11.118;2022-11-15T22:58:22;98924.56;;;9.31;100.00
49759;BME280;35654;46.080;11.118;2022-11-15T23:00:57;98921.22;;;9.34;100.00
49759;BME280;35654;46.080;11.118;2022-11-15T23:03:25;98925.88;;;9.33;100.00
49759;BME280;35654;46.080;11.118;2022-11-15T23:05:51;98919.59;;;9.33;100.00
49759;BME280;35654;46.080;11.118;2022-11-15T23:08:18;98908.97;;;9.31;100.00
49759;BME280;35654;46.080;11.118;2022-11-15T23:10:45;98910.91;;;9.31;100.00
49759;BME280;35654;46.080;11.118;2022-11-15T23:13:31;98904.94;;;9.29;100.00
49759;BME280;35654;46.080;11.118;2022-11-15T23:16:07;98909.34;;;9.25;100.00
49759;BME280;35654;46.080;11.118;2022-11-15T23:18:57;98903.38;;;9.23;100.00
49759;BME280;35654;46.080;11.118;2022-11-15T23:21:26;98902.66;;;9.17;100.00
49759;BME280;35654;46.080;11.118;2022-11-15T23:24:13;98895.78;;;9.20;100.00
49759;BME280;35654;46.080;11.118;2022-11-15T23:26:40;98897.41;;;9.21;100.00
49759;BME280;35654;46.080;11.118;2022-11-15T23:29:08;98888.50;;;9.15;100.00
49759;BME280;35654;46.080;11.118;2022-11-15T23:31:35;98893.13;;;9.15;100.00
49759;BME280;35654;46.080;11.118;2022-11-15T23:34:21;98884.22;;;9.09;100.00
49759;BME280;35654;46.080;11.118;2022-11-15T23:36:47;98882.28;;;9.10;100.00
49759;BME280;35654;46.080;11.118;2022-11-15T23:39:14;98888.25;;;9.12;100.00
49759;BME280;35654;46.080;11.118;2022-11-15T23:41:41;98879.03;;;9.08;100.00
49759;BME280;35654;46.080;11.118;2022-11-15T23:44:07;98877.47;;;9.02;100.00
49759;BME280;35654;46.080;11.118;2022-11-15T23:46:34;98877.78;;;9.00;100.00
49759;BME280;35654;46.080;11.118;2022-11-15T23:49:01;98870.69;;;8.99;100.00
49759;BME280;35654;46.080;11.118;2022-11-15T23:51:27;98874.22;;;9.00;100.00
49759;BME280;35654;46.080;11.118;2022-11-15T23:53:54;98865.22;;;8.99;100.00
49759;BME280;35654;46.080;11.118;2022-11-15T23:56:21;98865.53;;;8.98;100.00
49759;BME280;35654;46.080;11.118;2022-11-15T23:58:48;98860.66;;;8.95;100.00
